Time;durP1;ratioP1;P1;durP2;ratioP2;P2;SDS_P1;SDS_P2;PMS_P1;PMS_P2;Temp;Humidity;BMP_temperature;BMP_pressure;BME280_temperature;BME280_humidity;BME280_pressure;Samples;Min_cycle;Max_cycle;Signal;HPM_P1;HPM_P2
2023/04/27 00:00:26;;;;;;;5.18;3.42;;;6.60;68.10;;;;;;5051453;28;20151;-67
2023/04/27 00:02:52;;;;;;;6.40;2.75;;;6.60;68.10;;;;;;5051279;28;20017;-68
2023/04/27 00:05:18;;;;;;;5.30;3.10;;;6.60;68.10;;;;;;5051113;28;20384;-68
2023/04/27 00:07:43;;;;;;;4.95;3.13;;;6.60;68.10;;;;;;5050974;28;20029;-68
2023/04/27 00:10:09;;;;;;;4.10;2.80;;;6.60;68.20;;;;;;5051102;28;20090;-68
2023/04/27 00:12:34;;;;;;;3.60;2.67;;;6.60;68.20;;;;;;5051042;28;20395;-68
2023/04/27 00:15:00;;;;;;;5.07;3.05;;;6.60;68.20;;;;;;5050976;28;20029;-69
2023/04/27 00:17:26;;;;;;;5.15;3.20;;;6.60;68.20;;;;;;5050997;28;20459;-68
2023/04/27 00:19:52;;;;;;;5.00;2.92;;;6.60;68.20;;;;;;5050969;28;20025;-68
2023/04/27 00:22:17;;;;;;;4.47;2.95;;;6.60;68.10;;;;;;5050858;28;20024;-67
2023/04/27 00:24:43;;;;;;;5.18;3.63;;;6.60;68.20;;;;;;5050657;28;20029;-68
2023/04/27 00:27:09;;;;;;;6.30;3.47;;;6.60;68.30;;;;;;5050949;28;20127;-68
2023/04/27 00:29:34;;;;;;;5.60;3.38;;;6.50;68.40;;;;;;5050665;28;20032;-68
2023/04/27 00:32:00;;;;;;;6.40;4.25;;;6.50;68.40;;;;;;5050709;28;20024;-67
2023/04/27 00:34:25;;;;;;;8.15;5.10;;;6.50;68.40;;;;;;5050507;28;20021;-67
2023/04/27 00:36:51;;;;;;;8.18;4.47;;;6.50;68.40;;;;;;5050335;28;20017;-68
2023/04/27 00:39:16;;;;;;;7.78;4.00;;;6.50;68.40;;;;;;5050412;28;20460;-67
2023/04/27 00:41:42;;;;;;;6.03;3.50;;;6.50;68.50;;;;;;5050593;28;20029;-67
2023/04/27 00:44:08;;;;;;;6.32;3.33;;;6.50;68.50;;;;;;5050529;28;20044;-67
2023/04/27 00:46:33;;;;;;;6.10;3.22;;;6.50;68.60;;;;;;5050682;28;20025;-69
2023/04/27 00:49:00;;;;;;;5.47;3.20;;;6.50;68.60;;;;;;5050415;28;20025;-68
2023/04/27 00:51:29;;;;;;;4.03;2.40;;;6.40;68.50;;;;;;5050366;28;20025;-69
2023/04/27 00:53:59;;;;;;;3.67;2.50;;;6.40;68.60;;;;;;5050334;28;20053;-68
2023/04/27 00:56:25;;;;;;;4.97;2.65;;;6.40;68.60;;;;;;5050326;28;20487;-68
2023/04/27 00:58:50;;;;;;;5.78;2.78;;;6.40;68.70;;;;;;5050296;28;20064;-67
2023/04/27 01:01:16;;;;;;;2.88;2.15;;;6.40;68.80;;;;;;5050048;28;20048;-68
2023/04/27 01:03:42;;;;;;;3.55;2.15;;;6.40;68.80;;;;;;5050735;28;20092;-69
2023/04/27 01:06:08;;;;;;;3.08;2.08;;;6.40;68.80;;;;;;5050206;28;20028;-68
2023/04/27 01:08:33;;;;;;;5.50;2.25;;;6.30;68.80;;;;;;5050129;28;20029;-68
2023/04/27 01:10:59;;;;;;;2.70;1.90;;;6.30;68.80;;;;;;5049942;28;20056;-66
2023/04/27 01:13:24;;;;;;;3.80;2.25;;;6.30;68.80;;;;;;5050284;28;20051;-68
2023/04/27 01:15:50;;;;;;;3.60;2.00;;;6.30;69.00;;;;;;5050125;28;20032;-68
2023/04/27 01:18:16;;;;;;;4.30;2.30;;;6.20;69.00;;;;;;5050291;28;20025;-68
2023/04/27 01:20:43;;;;;;;5.47;2.53;;;6.20;68.90;;;;;;5050171;28;20021;-68
2023/04/27 01:23:15;;;;;;;4.20;2.00;;;6.20;69.20;;;;;;5048743;28;20445;-69
2023/04/27 01:25:40;;;;;;;4.63;2.28;;;6.20;69.30;;;;;;5050155;28;20104;-69
2023/04/27 01:28:06;;;;;;;3.38;2.33;;;6.10;69.40;;;;;;5048671;28;20103;-69
2023/04/27 01:30:31;;;;;;;6.32;2.88;;;6.10;69.50;;;;;;5050393;28;20116;-67
2023/04/27 01:32:57;;;;;;;3.95;2.50;;;6.10;69.60;;;;;;5048944;28;20229;-69
2023/04/27 01:35:23;;;;;;;4.60;2.72;;;6.10;69.50;;;;;;5050682;28;20040;-69
2023/04/27 01:37:48;;;;;;;5.45;3.28;;;6.10;69.60;;;;;;5049985;28;20036;-68
2023/04/27 01:40:14;;;;;;;7.07;4.32;;;6.10;69.40;;;;;;5049728;28;20102;-67
2023/04/27 01:42:39;;;;;;;11.15;5.68;;;6.10;69.40;;;;;;5049752;28;20043;-68
2023/04/27 01:45:05;;;;;;;10.98;4.93;;;6.10;69.30;;;;;;5049584;28;20079;-68
2023/04/27 01:47:31;;;;;;;6.50;3.80;;;6.20;69.20;;;;;;5049698;28;20100;-68
2023/04/27 01:49:57;;;;;;;5.32;3.45;;;6.20;69.20;;;;;;5052443;28;20040;-67
2023/04/27 01:52:22;;;;;;;6.47;2.90;;;6.10;69.10;;;;;;5052152;28;20036;-68
2023/04/27 01:54:48;;;;;;;7.63;3.88;;;6.10;69.20;;;;;;5053552;28;20055;-69
2023/04/27 01:57:14;;;;;;;10.18;4.85;;;6.10;69.20;;;;;;5053325;28;20025;-68
2023/04/27 01:59:40;;;;;;;11.95;6.65;;;6.10;69.20;;;;;;5053557;28;20227;-68
2023/04/27 02:02:06;;;;;;;16.58;7.60;;;6.10;69.10;;;;;;5053753;28;20026;-68
2023/04/27 02:04:31;;;;;;;13.65;7.15;;;6.10;69.20;;;;;;5053482;28;20052;-68
2023/04/27 02:06:57;;;;;;;7.45;4.47;;;6.10;69.30;;;;;;5053255;28;20025;-68
2023/04/27 02:09:23;;;;;;;7.43;3.33;;;6.00;69.30;;;;;;5053315;28;20028;-68
2023/04/27 02:11:49;;;;;;;4.32;2.60;;;5.90;69.60;;;;;;5053364;28;20399;-67
2023/04/27 02:14:14;;;;;;;4.35;2.60;;;5.90;69.90;;;;;;5053401;28;20028;-68
2023/04/27 02:16:40;;;;;;;3.88;2.60;;;5.80;70.20;;;;;;5053056;28;20029;-67
2023/04/27 02:19:05;;;;;;;3.42;2.78;;;5.80;70.30;;;;;;5053143;28;20025;-68
2023/04/27 02:21:31;;;;;;;5.78;3.35;;;5.80;70.30;;;;;;5053031;28;20036;-67
2023/04/27 02:23:57;;;;;;;9.68;4.38;;;5.70;70.30;;;;;;5051717;28;20021;-68
2023/04/27 02:26:28;;;;;;;12.75;6.80;;;5.70;70.30;;;;;;5052546;28;20534;-67
2023/04/27 02:28:54;;;;;;;14.00;7.40;;;5.70;70.40;;;;;;5051313;28;20107;-67
2023/04/27 02:31:19;;;;;;;16.23;8.27;;;5.60;70.50;;;;;;5052736;28;20526;-67
2023/04/27 02:33:45;;;;;;;17.13;8.43;;;5.60;71.30;;;;;;5052965;28;20057;-68
2023/04/27 02:36:10;;;;;;;13.73;7.82;;;5.60;70.70;;;;;;5052753;28;20029;-68
2023/04/27 02:38:36;;;;;;;9.57;5.25;;;5.60;70.70;;;;;;5051551;28;20332;-68
2023/04/27 02:41:02;;;;;;;8.70;4.22;;;5.60;70.80;;;;;;5051475;28;20104;-68
2023/04/27 02:43:27;;;;;;;8.68;5.07;;;5.60;70.80;;;;;;5052772;28;20012;-67
2023/04/27 02:45:53;;;;;;;8.35;4.45;;;5.60;70.80;;;;;;5052455;28;20422;-68
2023/04/27 02:48:18;;;;;;;9.30;4.80;;;5.50;71.50;;;;;;5052685;28;20025;-68
2023/04/27 02:50:44;;;;;;;9.35;4.40;;;5.50;70.90;;;;;;5052852;28;20100;-68
2023/04/27 02:53:11;;;;;;;9.85;5.10;;;5.50;71.00;;;;;;5052987;28;20466;-68
2023/04/27 02:55:37;;;;;;;8.13;3.78;;;5.50;71.10;;;;;;5052465;28;20025;-68
2023/04/27 02:58:03;;;;;;;5.57;3.10;;;5.50;71.20;;;;;;5052398;28;20028;-69
2023/04/27 03:00:28;;;;;;;3.78;2.53;;;5.50;71.30;;;;;;5052133;28;20029;-67
2023/04/27 03:02:55;;;;;;;4.35;2.40;;;5.40;71.60;;;;;;5052289;28;20017;-67
2023/04/27 03:05:20;;;;;;;4.72;2.65;;;5.40;71.60;;;;;;5052164;28;20096;-68
2023/04/27 03:07:46;;;;;;;5.72;2.70;;;5.40;71.60;;;;;;5052173;28;20100;-67
2023/04/27 03:10:11;;;;;;;4.78;2.55;;;5.40;71.80;;;;;;5050930;28;20025;-69
2023/04/27 03:12:37;;;;;;;3.28;2.10;;;5.40;71.80;;;;;;5052126;28;20075;-68
2023/04/27 03:15:03;;;;;;;4.85;2.40;;;5.40;71.90;;;;;;5052110;28;20492;-67
2023/04/27 03:17:28;;;;;;;4.85;2.10;;;5.40;71.80;;;;;;5050670;28;20029;-67
2023/04/27 03:19:54;;;;;;;3.67;2.15;;;5.40;71.80;;;;;;5052459;28;20082;-68
2023/04/27 03:22:20;;;;;;;5.18;1.95;;;5.40;71.70;;;;;;5052170;28;20025;-68
2023/04/27 03:24:45;;;;;;;5.75;2.75;;;5.40;71.70;;;;;;5051925;28;20096;-67
2023/04/27 03:27:11;;;;;;;3.65;2.45;;;5.40;71.60;;;;;;5051978;28;20028;-67
2023/04/27 03:29:36;;;;;;;5.10;2.67;;;5.30;71.60;;;;;;5051855;28;20057;-68
2023/04/27 03:32:03;;;;;;;4.22;2.28;;;5.40;71.50;;;;;;5051915;28;20028;-67
2023/04/27 03:34:29;;;;;;;4.53;2.25;;;5.30;71.30;;;;;;5051592;28;20059;-68
2023/04/27 03:36:55;;;;;;;5.32;1.95;;;5.40;71.20;;;;;;5051903;28;20074;-68
2023/04/27 03:39:20;;;;;;;3.42;1.90;;;5.40;71.10;;;;;;5052035;28;20029;-68
2023/04/27 03:41:46;;;;;;;4.10;2.08;;;5.40;71.00;;;;;;5052255;28;20052;-67
2023/04/27 03:44:11;;;;;;;3.78;1.80;;;5.40;70.90;;;;;;5051906;28;20487;-68
2023/04/27 03:46:37;;;;;;;2.97;2.00;;;5.40;71.00;;;;;;5051732;28;20021;-69
2023/04/27 03:49:02;;;;;;;3.35;1.92;;;5.30;70.90;;;;;;5051491;28;20029;-68
2023/04/27 03:51:30;;;;;;;4.68;2.13;;;5.30;70.90;;;;;;5051541;28;20021;-67
2023/04/27 03:53:56;;;;;;;4.05;2.40;;;5.30;70.90;;;;;;5051407;28;20108;-68
2023/04/27 03:56:22;;;;;;;4.30;1.88;;;5.30;70.90;;;;;;5051612;28;20543;-67
2023/04/27 03:58:47;;;;;;;2.78;1.73;;;5.30;70.90;;;;;;5051157;28;20104;-67
2023/04/27 04:01:13;;;;;;;2.70;1.90;;;5.30;70.90;;;;;;5051242;28;20068;-67
2023/04/27 04:03:39;;;;;;;3.58;2.10;;;5.20;70.90;;;;;;5051316;28;20033;-67
2023/04/27 04:06:05;;;;;;;5.88;2.20;;;5.20;70.90;;;;;;5051144;28;20071;-66
2023/04/27 04:08:32;;;;;;;4.60;2.40;;;5.20;70.80;;;;;;5051223;28;20021;-67
2023/04/27 04:10:58;;;;;;;5.55;2.63;;;5.20;70.80;;;;;;5049578;28;20048;-68
2023/04/27 04:13:24;;;;;;;5.70;2.30;;;5.20;71.00;;;;;;5050838;28;20052;-68
2023/04/27 04:15:59;;;;;;;4.47;2.30;;;5.20;71.10;;;;;;5051002;28;20033;-67
2023/04/27 04:18:24;;;;;;;5.35;2.92;;;5.20;71.70;;;;;;5050996;28;20107;-67
2023/04/27 04:20:50;;;;;;;5.32;3.03;;;5.20;71.20;;;;;;5050768;28;20488;-68
2023/04/27 04:23:15;;;;;;;4.97;2.70;;;5.10;71.30;;;;;;5049660;28;20024;-66
2023/04/27 04:25:41;;;;;;;4.03;2.80;;;5.10;71.30;;;;;;5050589;28;20048;-67
2023/04/27 04:28:06;;;;;;;4.85;2.60;;;5.20;71.30;;;;;;5050780;28;20542;-66
2023/04/27 04:30:32;;;;;;;5.90;2.50;;;5.20;71.30;;;;;;5050701;28;20484;-66
2023/04/27 04:32:57;;;;;;;3.25;2.40;;;5.20;71.40;;;;;;5049633;28;20021;-68
2023/04/27 04:35:23;;;;;;;5.80;2.83;;;5.20;71.40;;;;;;5050813;28;20036;-68
2023/04/27 04:37:48;;;;;;;6.53;3.33;;;5.20;71.50;;;;;;5050711;28;20040;-68
2023/04/27 04:40:14;;;;;;;4.53;3.10;;;5.20;71.70;;;;;;5050633;28;20040;-68
2023/04/27 04:42:40;;;;;;;4.80;2.88;;;5.20;71.90;;;;;;5050893;28;20083;-67
2023/04/27 04:45:06;;;;;;;5.47;3.25;;;5.20;71.80;;;;;;5050574;28;20022;-66
2023/04/27 04:47:32;;;;;;;7.85;3.30;;;5.20;71.80;;;;;;5050577;28;20025;-66
2023/04/27 04:49:58;;;;;;;6.28;3.50;;;5.30;71.90;;;;;;5050620;28;20025;-67
2023/04/27 04:52:24;;;;;;;6.13;3.47;;;5.30;71.90;;;;;;5050352;28;20032;-68
2023/04/27 04:54:53;;;;;;;4.35;3.10;;;5.30;71.90;;;;;;5050419;28;20017;-68
2023/04/27 04:57:18;;;;;;;5.88;3.75;;;5.40;72.10;;;;;;5050172;28;20032;-67
2023/04/27 04:59:44;;;;;;;5.38;3.90;;;5.40;72.40;;;;;;5050106;28;20017;-67
2023/04/27 05:02:09;;;;;;;7.45;4.22;;;5.40;72.30;;;;;;5050196;28;20017;-67
2023/04/27 05:04:35;;;;;;;6.32;3.38;;;5.40;72.40;;;;;;5050504;28;20066;-66
2023/04/27 05:07:00;;;;;;;6.03;3.85;;;5.50;72.50;;;;;;5050328;28;20531;-67
2023/04/27 05:09:26;;;;;;;6.53;4.00;;;5.50;72.60;;;;;;5050273;28;20483;-68
2023/04/27 05:11:51;;;;;;;7.18;3.92;;;5.50;72.50;;;;;;5050219;28;20563;-66
2023/04/27 05:14:17;;;;;;;5.82;3.60;;;5.50;72.50;;;;;;5050219;28;20392;-66
2023/04/27 05:16:43;;;;;;;6.00;4.00;;;5.60;72.50;;;;;;5050046;28;20100;-67
2023/04/27 05:19:08;;;;;;;6.13;3.80;;;5.60;72.40;;;;;;5050283;28;20025;-67
2023/04/27 05:21:34;;;;;;;6.32;4.03;;;5.70;72.40;;;;;;5050019;28;20384;-67
2023/04/27 05:23:59;;;;;;;7.30;3.78;;;5.70;72.40;;;;;;5051119;28;20379;-67
2023/04/27 05:26:25;;;;;;;7.28;4.03;;;5.80;72.40;;;;;;5054230;28;20033;-67
2023/04/27 05:28:50;;;;;;;8.23;3.83;;;5.90;72.20;;;;;;5053978;28;20025;-68
2023/04/27 05:31:16;;;;;;;5.35;4.03;;;6.10;72.40;;;;;;5054583;28;20597;-67
2023/04/27 05:33:41;;;;;;;7.18;4.38;;;7.20;71.90;;;;;;5054286;28;20488;-68
2023/04/27 05:36:08;;;;;;;7.45;4.10;;;8.20;68.70;;;;;;5054100;28;20025;-67
2023/04/27 05:38:34;;;;;;;5.78;3.70;;;9.30;65.90;;;;;;5053876;28;20029;-67
2023/04/27 05:41:00;;;;;;;7.10;3.90;;;10.40;63.30;;;;;;5053854;28;20056;-68
2023/04/27 05:43:26;;;;;;;6.38;3.38;;;11.10;60.50;;;;;;5053931;28;20056;-68
2023/04/27 05:45:52;;;;;;;7.30;4.13;;;11.80;58.80;;;;;;5054082;28;20063;-67
2023/04/27 05:48:18;;;;;;;5.85;3.20;;;12.20;57.60;;;;;;5053990;28;20079;-68
2023/04/27 05:50:44;;;;;;;5.40;3.15;;;12.90;55.80;;;;;;5054002;28;20098;-67
2023/04/27 05:53:10;;;;;;;5.35;3.47;;;13.40;54.60;;;;;;5053748;28;20487;-68
2023/04/27 05:55:36;;;;;;;5.97;3.72;;;13.70;53.10;;;;;;5052345;28;20075;-68
2023/04/27 05:58:02;;;;;;;5.05;3.42;;;14.00;51.80;;;;;;5053480;28;20029;-67
2023/04/27 06:00:28;;;;;;;6.65;3.80;;;14.30;51.10;;;;;;5052225;28;20495;-67
2023/04/27 06:02:53;;;;;;;5.35;3.30;;;14.10;50.10;;;;;;5053765;28;20021;-68
2023/04/27 06:05:20;;;;;;;5.40;3.30;;;14.30;50.10;;;;;;5052190;28;20413;-68
2023/04/27 06:07:46;;;;;;;6.13;3.67;;;14.60;49.60;;;;;;5053514;28;20021;-68
2023/04/27 06:10:11;;;;;;;5.50;3.50;;;15.00;48.90;;;;;;5053342;28;20388;-68
2023/04/27 06:12:37;;;;;;;5.13;3.42;;;15.10;47.50;;;;;;5053431;28;20025;-66
2023/04/27 06:15:07;;;;;;;4.78;3.30;;;14.90;47.70;;;;;;5053465;28;20442;-68
2023/04/27 06:17:37;;;;;;;5.00;3.50;;;15.10;47.70;;;;;;5053376;28;20025;-67
2023/04/27 06:20:07;;;;;;;5.78;3.10;;;15.30;47.00;;;;;;5053865;28;20587;-67
2023/04/27 06:22:35;;;;;;;5.65;3.30;;;15.90;47.00;;;;;;5053499;28;20047;-68
2023/04/27 06:25:02;;;;;;;6.28;3.20;;;16.00;45.90;;;;;;5053221;28;20025;-67
2023/04/27 06:27:27;;;;;;;4.72;2.75;;;16.20;45.50;;;;;;5052863;28;20025;-68
2023/04/27 06:29:53;;;;;;;4.80;2.83;;;16.50;45.60;;;;;;5053195;28;20029;-67
2023/04/27 06:32:18;;;;;;;3.85;3.20;;;17.00;45.30;;;;;;5053088;28;20052;-68
2023/04/27 06:34:44;;;;;;;5.22;3.10;;;17.30;43.80;;;;;;5052581;28;20025;-69
2023/04/27 06:37:09;;;;;;;6.03;3.17;;;17.40;44.00;;;;;;5052839;28;20025;-67
2023/04/27 06:39:35;;;;;;;4.65;2.70;;;17.60;43.70;;;;;;5053376;28;20035;-67
2023/04/27 06:42:03;;;;;;;3.90;2.85;;;17.70;42.90;;;;;;5052526;28;20032;-69
2023/04/27 06:44:28;;;;;;;4.07;2.92;;;17.50;42.40;;;;;;5052833;28;20017;-68
2023/04/27 06:46:54;;;;;;;5.32;2.83;;;17.40;42.70;;;;;;5052765;28;20079;-68
2023/04/27 06:49:20;;;;;;;7.38;2.80;;;17.00;42.20;;;;;;5052827;28;20094;-67
2023/04/27 06:51:46;;;;;;;4.57;3.33;;;17.30;42.90;;;;;;5052718;28;20047;-67
2023/04/27 06:54:12;;;;;;;5.63;3.50;;;17.00;42.70;;;;;;5052472;28;20101;-67
2023/04/27 06:56:38;;;;;;;4.45;3.25;;;17.10;43.30;;;;;;5052839;28;20104;-67
2023/04/27 06:59:03;;;;;;;4.70;3.13;;;17.20;43.40;;;;;;5052392;28;20443;-68
2023/04/27 07:01:29;;;;;;;4.72;2.70;;;17.60;43.10;;;;;;5052411;28;20029;-67
2023/04/27 07:03:54;;;;;;;5.03;3.00;;;17.70;42.40;;;;;;5052233;28;20052;-67
2023/04/27 07:06:21;;;;;;;5.40;2.60;;;17.40;42.70;;;;;;5052197;28;20051;-69
2023/04/27 07:08:46;;;;;;;3.90;2.63;;;17.50;42.80;;;;;;5052297;28;20017;-68
2023/04/27 07:11:12;;;;;;;6.25;3.30;;;17.80;42.40;;;;;;5052166;28;20039;-68
2023/04/27 07:13:38;;;;;;;4.95;2.58;;;17.40;41.80;;;;;;5052307;28;20606;-68
2023/04/27 07:16:03;;;;;;;4.90;3.00;;;17.90;42.50;;;;;;5052315;28;20387;-65
2023/04/27 07:18:29;;;;;;;4.25;2.53;;;18.20;41.70;;;;;;5050764;28;20040;-65
2023/04/27 07:20:56;;;;;;;3.40;2.53;;;18.40;41.20;;;;;;5052084;28;20032;-68
2023/04/27 07:23:22;;;;;;;6.15;3.40;;;18.80;40.90;;;;;;5052189;28;20123;-68
2023/04/27 07:25:48;;;;;;;4.57;3.08;;;18.30;40.40;;;;;;5051559;28;20061;-68
2023/04/27 07:28:14;;;;;;;3.35;2.45;;;18.40;40.20;;;;;;5051924;28;20092;-68
2023/04/27 07:30:41;;;;;;;3.70;2.38;;;18.60;40.70;;;;;;5051841;28;20432;-68
2023/04/27 07:33:07;;;;;;;4.18;2.58;;;19.20;40.20;;;;;;5051894;28;20021;-69
2023/04/27 07:35:33;;;;;;;5.45;2.90;;;19.40;39.40;;;;;;5051574;28;20342;-69
2023/04/27 07:38:00;;;;;;;4.78;2.70;;;19.30;38.80;;;;;;5051642;28;20029;-67
2023/04/27 07:40:27;;;;;;;3.30;2.70;;;18.10;39.40;;;;;;5051214;28;20028;-68
2023/04/27 07:42:53;;;;;;;4.97;2.35;;;18.00;40.60;;;;;;5051765;28;20225;-68
2023/04/27 07:45:19;;;;;;;3.65;2.67;;;18.70;40.90;;;;;;5051421;28;20441;-67
2023/04/27 07:47:45;;;;;;;4.35;2.65;;;18.90;40.40;;;;;;5050543;28;20028;-67
2023/04/27 07:50:13;;;;;;;3.28;2.35;;;19.30;40.00;;;;;;5051148;28;20033;-67
2023/04/27 07:52:38;;;;;;;2.95;2.30;;;19.40;39.80;;;;;;5051167;28;20035;-68
2023/04/27 07:55:05;;;;;;;6.22;2.20;;;19.60;39.70;;;;;;5051273;28;20025;-68
2023/04/27 07:57:30;;;;;;;5.32;2.80;;;19.60;39.90;;;;;;5051115;28;20207;-68
2023/04/27 07:59:56;;;;;;;3.72;2.47;;;19.00;39.70;;;;;;5051148;28;20059;-67
2023/04/27 08:02:22;;;;;;;4.72;2.78;;;18.00;40.70;;;;;;5051304;28;20060;-68
2023/04/27 08:04:48;;;;;;;4.80;2.85;;;17.20;42.10;;;;;;5051297;28;20072;-68
2023/04/27 08:07:15;;;;;;;4.20;2.55;;;16.50;43.30;;;;;;5050725;28;20032;-67
2023/04/27 08:09:41;;;;;;;4.30;2.53;;;16.10;44.50;;;;;;5049777;28;20111;-67
2023/04/27 08:12:06;;;;;;;3.60;2.58;;;16.00;45.00;;;;;;5050819;28;20130;-68
2023/04/27 08:14:35;;;;;;;4.15;2.35;;;15.30;44.90;;;;;;5050988;28;20487;-67
2023/04/27 08:17:01;;;;;;;3.03;2.35;;;14.60;45.30;;;;;;5050732;28;20445;-68
2023/04/27 08:19:26;;;;;;;5.35;2.40;;;14.10;46.20;;;;;;5050948;28;20108;-67
2023/04/27 08:21:52;;;;;;;3.95;2.10;;;13.50;45.10;;;;;;5050622;28;20499;-68
2023/04/27 08:24:18;;;;;;;4.05;2.28;;;13.40;46.50;;;;;;5050942;28;20067;-67
2023/04/27 08:26:43;;;;;;;2.97;2.10;;;13.30;45.40;;;;;;5050673;28;20028;-68
2023/04/27 08:29:09;;;;;;;3.65;2.03;;;13.00;45.90;;;;;;5051090;28;20021;-68
2023/04/27 08:31:34;;;;;;;2.97;2.25;;;12.70;46.30;;;;;;5050893;28;20035;-66
2023/04/27 08:34:00;;;;;;;3.97;2.20;;;12.80;47.00;;;;;;5051007;28;20021;-68
2023/04/27 08:36:27;;;;;;;3.17;2.20;;;12.80;47.00;;;;;;5051108;28;20025;-68
2023/04/27 08:38:53;;;;;;;2.88;2.00;;;12.80;47.30;;;;;;5051133;28;20086;-66
2023/04/27 08:41:23;;;;;;;3.17;2.05;;;12.90;46.80;;;;;;5051472;28;20029;-68
2023/04/27 08:43:50;;;;;;;3.80;2.00;;;12.80;46.80;;;;;;5051419;28;20025;-68
2023/04/27 08:46:20;;;;;;;3.85;1.88;;;13.00;47.20;;;;;;5050952;28;20391;-67
2023/04/27 08:48:48;;;;;;;3.78;2.30;;;13.20;46.90;;;;;;5051283;28;20494;-67
2023/04/27 08:51:15;;;;;;;3.42;2.10;;;12.90;45.50;;;;;;5050630;28;20021;-67
2023/04/27 08:53:48;;;;;;;3.15;2.10;;;12.80;46.40;;;;;;5050210;28;20029;-68
2023/04/27 08:56:13;;;;;;;5.35;2.67;;;12.80;46.50;;;;;;5050484;28;20109;-66
2023/04/27 08:58:39;;;;;;;3.20;2.30;;;12.70;46.20;;;;;;5050143;28;20110;-67
2023/04/27 09:01:06;;;;;;;6.32;2.55;;;12.50;45.70;;;;;;5050330;28;20096;-68
2023/04/27 09:03:33;;;;;;;3.53;2.20;;;12.40;46.50;;;;;;5049980;28;20483;-67
2023/04/27 09:06:02;;;;;;;5.13;2.42;;;12.50;46.50;;;;;;5050263;28;20074;-66
2023/04/27 09:08:28;;;;;;;3.33;2.25;;;12.50;45.80;;;;;;5050068;28;20024;-67
2023/04/27 09:10:54;;;;;;;2.58;1.95;;;12.40;46.30;;;;;;5050060;28;20029;-68
2023/04/27 09:13:20;;;;;;;3.40;2.05;;;12.70;46.50;;;;;;5050061;28;20407;-66
2023/04/27 09:15:48;;;;;;;2.83;2.00;;;12.90;46.60;;;;;;5049819;28;20029;-67
2023/04/27 09:18:21;;;;;;;3.75;2.20;;;13.10;46.40;;;;;;5049823;28;20033;-68
2023/04/27 09:20:49;;;;;;;4.28;2.40;;;13.10;45.80;;;;;;5049764;28;20025;-67
2023/04/27 09:23:35;;;;;;;5.15;2.45;;;13.30;45.90;;;;;;5049705;28;20025;-66
2023/04/27 09:26:06;;;;;;;3.25;2.28;;;13.40;45.00;;;;;;5049574;28;20155;-67
2023/04/27 09:28:33;;;;;;;4.15;1.90;;;13.50;45.20;;;;;;5049742;28;20017;-67
2023/04/27 09:31:01;;;;;;;8.60;2.45;;;13.60;45.10;;;;;;5049714;28;20112;-68
2023/04/27 09:33:28;;;;;;;4.25;2.40;;;13.70;44.60;;;;;;5049983;28;20415;-68
2023/04/27 09:35:56;;;;;;;3.53;2.25;;;13.50;44.00;;;;;;5049673;28;20032;-68
2023/04/27 09:38:22;;;;;;;6.63;2.90;;;13.60;44.40;;;;;;5049637;28;20494;-68
2023/04/27 09:40:50;;;;;;;4.00;2.63;;;13.60;44.20;;;;;;5049713;28;20029;-67
2023/04/27 09:43:16;;;;;;;4.70;2.83;;;13.50;44.60;;;;;;5049614;28;20391;-66
2023/04/27 09:45:42;;;;;;;4.80;2.80;;;13.40;44.90;;;;;;5049530;28;20010;-67
2023/04/27 09:48:11;;;;;;;3.95;2.90;;;13.50;44.60;;;;;;5049571;28;20086;-67
2023/04/27 09:50:43;;;;;;;3.45;2.70;;;13.40;44.60;;;;;;5049590;28;20032;-67
2023/04/27 09:53:12;;;;;;;4.90;3.00;;;13.40;44.60;;;;;;5049885;28;20048;-67
2023/04/27 09:55:54;;;;;;;3.92;2.83;;;13.30;44.10;;;;;;5049938;28;20071;-66
2023/04/27 09:58:28;;;;;;;4.57;2.80;;;13.20;45.30;;;;;;5049719;28;20395;-66
2023/04/27 10:01:14;;;;;;;4.45;3.00;;;13.40;45.10;;;;;;5049670;28;20040;-67
2023/04/27 10:04:20;;;;;;;5.10;3.08;;;13.40;44.70;;;;;;5049544;28;20021;-68
2023/04/27 10:07:11;;;;;;;3.63;2.70;;;13.40;44.10;;;;;;5048284;28;20033;-67
2023/04/27 10:09:48;;;;;;;3.45;2.38;;;13.40;45.10;;;;;;5050099;28;20025;-66
2023/04/27 10:12:32;;;;;;;5.00;3.22;;;13.70;45.10;;;;;;5053175;28;20445;-67
2023/04/27 10:15:11;;;;;;;5.85;2.80;;;13.90;45.10;;;;;;5053333;28;20128;-67
2023/04/27 10:17:36;;;;;;;4.95;3.22;;;14.00;44.40;;;;;;5053225;28;20023;-67
2023/04/27 10:20:08;;;;;;;4.47;2.97;;;14.00;44.00;;;;;;5053090;28;20032;-67
2023/04/27 10:22:51;;;;;;;4.97;3.10;;;14.10;44.30;;;;;;5051897;28;20021;-68
2023/04/27 10:25:21;;;;;;;4.72;3.00;;;14.30;44.50;;;;;;5053061;28;20029;-68
2023/04/27 10:27:55;;;;;;;4.28;3.00;;;14.20;43.80;;;;;;5052930;28;20021;-68
2023/04/27 10:30:23;;;;;;;5.07;3.38;;;14.20;43.90;;;;;;5053049;28;20028;-67
2023/04/27 10:32:53;;;;;;;6.13;3.20;;;14.30;43.40;;;;;;5053574;28;20021;-67
2023/04/27 10:35:20;;;;;;;4.82;3.25;;;14.30;43.90;;;;;;5052808;28;20503;-67
2023/04/27 10:37:46;;;;;;;3.85;3.00;;;14.30;43.80;;;;;;5052917;28;20491;-67
2023/04/27 10:40:16;;;;;;;4.43;3.20;;;14.10;43.30;;;;;;5052653;28;20029;-66
2023/04/27 10:42:48;;;;;;;4.55;3.05;;;13.90;43.10;;;;;;5053252;28;20479;-68
2023/04/27 10:45:14;;;;;;;4.13;3.08;;;13.80;43.10;;;;;;5052709;28;20544;-67
2023/04/27 10:47:41;;;;;;;4.53;3.35;;;13.80;43.60;;;;;;5052455;28;20021;-68
2023/04/27 10:50:10;;;;;;;3.20;2.60;;;13.90;43.50;;;;;;5052539;28;20021;-67
2023/04/27 10:52:42;;;;;;;5.55;3.22;;;14.10;43.40;;;;;;5052673;28;20028;-67
2023/04/27 10:55:19;;;;;;;5.82;3.47;;;14.30;42.80;;;;;;5051161;28;20476;-68
2023/04/27 10:57:53;;;;;;;5.45;3.25;;;14.20;42.60;;;;;;5052463;28;20021;-66
2023/04/27 11:00:27;;;;;;;4.88;3.10;;;14.20;42.60;;;;;;5050863;28;20119;-68
2023/04/27 11:02:54;;;;;;;6.53;3.00;;;14.20;42.40;;;;;;5052792;28;20017;-68
2023/04/27 11:05:28;;;;;;;4.72;3.28;;;14.40;42.90;;;;;;5052184;28;20032;-67
2023/04/27 11:08:08;;;;;;;4.13;2.90;;;14.30;42.20;;;;;;5052373;28;20028;-67
2023/04/27 11:10:34;;;;;;;5.40;3.60;;;14.40;42.80;;;;;;5052213;28;20096;-66
2023/04/27 11:13:13;;;;;;;3.83;3.03;;;14.50;42.30;;;;;;5052426;28;20082;-68
2023/04/27 11:15:48;;;;;;;4.53;3.17;;;14.50;42.30;;;;;;5052297;28;20345;-67
2023/04/27 11:18:15;;;;;;;4.18;3.25;;;14.60;42.40;;;;;;5052288;28;20068;-68
2023/04/27 11:20:41;;;;;;;3.85;3.00;;;14.50;41.80;;;;;;5052218;28;20476;-67
2023/04/27 11:23:09;;;;;;;6.93;3.53;;;14.70;42.10;;;;;;5052589;28;20111;-67
2023/04/27 11:25:36;;;;;;;4.95;3.33;;;14.80;41.80;;;;;;5052331;28;20533;-67
2023/04/27 11:28:01;;;;;;;5.13;3.10;;;14.80;41.80;;;;;;5052025;28;20047;-68
2023/04/27 11:30:27;;;;;;;5.20;3.60;;;15.00;41.10;;;;;;5051990;28;20131;-67
2023/04/27 11:32:53;;;;;;;5.10;3.72;;;14.90;39.80;;;;;;5051920;28;20105;-67
2023/04/27 11:35:18;;;;;;;5.18;3.10;;;14.70;41.00;;;;;;5051856;28;20056;-66
2023/04/27 11:37:44;;;;;;;6.43;3.80;;;15.00;41.50;;;;;;5051584;28;20025;-67
2023/04/27 11:40:13;;;;;;;4.20;3.25;;;15.10;40.10;;;;;;5051845;28;20025;-67
2023/04/27 11:42:42;;;;;;;5.70;3.60;;;15.20;40.50;;;;;;5051749;28;20028;-68
2023/04/27 11:45:10;;;;;;;5.43;3.70;;;15.20;39.30;;;;;;5051750;28;20018;-67
2023/04/27 11:47:36;;;;;;;6.38;3.70;;;15.00;39.30;;;;;;5051425;28;20491;-68
2023/04/27 11:50:06;;;;;;;5.93;3.90;;;15.00;38.70;;;;;;5051566;28;20025;-67
2023/04/27 11:52:38;;;;;;;5.05;3.42;;;14.70;39.80;;;;;;5051976;28;20027;-68
2023/04/27 11:55:04;;;;;;;;;;;14.80;40.30;;;;;;5051988;28;20017;-69
2023/04/27 11:57:34;;;;;;;6.38;4.15;;;15.10;40.40;;;;;;5051121;28;20453;-67
2023/04/27 12:00:09;;;;;;;5.25;3.22;;;14.90;39.70;;;;;;5051420;28;20017;-67
2023/04/27 12:02:35;;;;;;;4.45;3.30;;;15.00;40.10;;;;;;5051431;28;20429;-68
2023/04/27 12:05:01;;;;;;;5.00;3.38;;;15.30;40.10;;;;;;5051114;28;20096;-67
2023/04/27 12:07:27;;;;;;;6.07;3.83;;;15.40;39.90;;;;;;5051100;28;20227;-68
2023/04/27 12:09:53;;;;;;;4.65;3.35;;;15.20;39.20;;;;;;5049906;28;20104;-67
2023/04/27 12:12:21;;;;;;;6.38;3.38;;;15.20;39.50;;;;;;5051108;28;20483;-67
2023/04/27 12:14:50;;;;;;;6.45;3.85;;;15.10;40.10;;;;;;5050980;28;20058;-67
2023/04/27 12:17:16;;;;;;;6.07;3.90;;;15.20;39.90;;;;;;5050896;28;20040;-68
2023/04/27 12:19:41;;;;;;;4.68;3.42;;;15.10;39.60;;;;;;5050882;28;20697;-68
2023/04/27 12:22:07;;;;;;;6.47;3.50;;;15.20;40.10;;;;;;5050849;28;20104;-67
2023/04/27 12:24:33;;;;;;;5.03;3.17;;;15.10;39.20;;;;;;5051111;28;20025;-66
2023/04/27 12:26:58;;;;;;;3.47;3.10;;;15.10;39.80;;;;;;5050773;28;20033;-67
2023/04/27 12:29:24;;;;;;;3.70;3.00;;;15.30;39.90;;;;;;5049382;28;20021;-66
2023/04/27 12:31:50;;;;;;;3.83;3.15;;;15.40;39.90;;;;;;5049510;28;20149;-66
2023/04/27 12:34:16;;;;;;;4.28;3.15;;;15.40;39.50;;;;;;5050317;28;20025;-67
2023/04/27 12:36:42;;;;;;;4.60;3.10;;;15.40;39.60;;;;;;5050698;28;20114;-66
2023/04/27 12:39:19;;;;;;;3.53;2.67;;;15.60;39.80;;;;;;5050614;28;20079;-66
2023/04/27 12:41:49;;;;;;;3.92;3.20;;;15.70;39.80;;;;;;5050518;28;20036;-66
2023/04/27 12:44:16;;;;;;;5.55;3.60;;;15.60;39.10;;;;;;5049067;28;20066;-65
2023/04/27 12:46:43;;;;;;;6.35;3.20;;;15.50;38.90;;;;;;5050291;28;20096;-66
2023/04/27 12:49:09;;;;;;;4.75;2.90;;;15.30;39.60;;;;;;5050433;28;20044;-66